Time;durP1;ratioP1;P1;durP2;ratioP2;P2;SDS_P1;SDS_P2;PMS_P1;PMS_P2;Temp;Humidity;BMP_temperature;BMP_pressure;BME280_temperature;BME280_humidity;BME280_pressure;Samples;Min_cycle;Max_cycle;Signal;HPM_P1;HPM_P2
2021/01/10 00:02:29;;;;;;;38.97;19.83;;;2.90;99.90;;;;;;4988636;28;20180;-94
2021/01/10 00:05:12;;;;;;;33.30;18.97;;;3.00;99.90;;;;;;4988545;28;20209;-94
2021/01/10 00:07:48;;;;;;;35.80;19.53;;;3.10;99.90;;;;;;4988821;28;20174;-93
2021/01/10 00:10:42;;;;;;;31.27;19.17;;;3.00;99.90;;;;;;4974715;28;20182;-94
2021/01/10 00:13:17;;;;;;;32.57;19.83;;;3.10;99.90;;;;;;4975062;28;20205;-94
2021/01/10 00:15:46;;;;;;;41.93;20.77;;;3.10;99.90;;;;;;4990124;28;20174;-94
2021/01/10 00:18:24;;;;;;;42.40;20.50;;;3.10;99.90;;;;;;4992717;28;20201;-93
2021/01/10 00:20:53;;;;;;;27.40;18.27;;;3.20;99.90;;;;;;4989093;28;20229;-94
2021/01/10 00:23:24;;;;;;;30.80;18.97;;;3.20;99.90;;;;;;4988116;28;20278;-95
2021/01/10 00:25:52;;;;;;;30.97;18.37;;;3.20;99.90;;;;;;4987986;28;20197;-94
2021/01/10 00:28:18;;;;;;;33.93;20.23;;;3.10;99.90;;;;;;4990004;28;20201;-94
2021/01/10 00:30:50;;;;;;;31.10;19.10;;;3.10;99.90;;;;;;4989394;28;20174;-94
2021/01/10 00:33:33;;;;;;;29.20;18.47;;;3.10;99.90;;;;;;4972831;28;20209;-94
2021/01/10 00:36:16;;;;;;;27.97;18.07;;;3.00;99.90;;;;;;4988931;28;20280;-94
2021/01/10 00:38:53;;;;;;;30.33;18.33;;;2.90;99.90;;;;;;4973517;28;20694;-93
2021/01/10 00:41:24;;;;;;;30.53;19.37;;;2.90;99.90;;;;;;4990424;28;20206;-94
2021/01/10 00:44:00;;;;;;;30.83;19.00;;;2.90;99.90;;;;;;5006226;28;20178;-94
2021/01/10 00:46:38;;;;;;;28.27;18.47;;;2.80;99.90;;;;;;4973977;28;20210;-94
2021/01/10 00:49:09;;;;;;;30.80;18.50;;;2.90;99.90;;;;;;4974814;28;20198;-94
2021/01/10 00:51:39;;;;;;;36.90;18.33;;;2.90;99.90;;;;;;4975418;28;20201;-95
2021/01/10 00:54:11;;;;;;;32.37;19.53;;;3.00;99.90;;;;;;4974188;28;20174;-94
2021/01/10 00:56:46;;;;;;;35.20;18.30;;;3.00;99.90;;;;;;4988226;28;20181;-93
2021/01/10 00:59:14;;;;;;;29.70;19.67;;;3.00;99.90;;;;;;4989428;28;20174;-94
2021/01/10 01:01:52;;;;;;;30.23;19.17;;;3.10;99.90;;;;;;4988990;28;20262;-93
2021/01/10 01:04:28;;;;;;;29.97;19.53;;;3.10;99.90;;;;;;4988326;28;20177;-93
2021/01/10 01:09:32;;;;;;;30.07;18.97;;;2.90;99.90;;;;;;5030177;28;20208;-93
2021/01/10 01:12:01;;;;;;;26.33;18.17;;;2.70;99.90;;;;;;5027321;28;20176;-94
2021/01/10 01:14:29;;;;;;;23.53;17.00;;;2.60;99.90;;;;;;5027304;28;20180;-93
2021/01/10 01:16:57;;;;;;;28.97;18.97;;;2.50;99.90;;;;;;5027184;28;20619;-94
2021/01/10 01:19:31;;;;;;;28.67;17.50;;;2.50;99.90;;;;;;5009597;28;20187;-94
2021/01/10 01:22:00;;;;;;;26.37;17.93;;;2.50;99.90;;;;;;5005994;28;20184;-91
2021/01/10 01:24:26;;;;;;;29.73;17.97;;;2.70;99.90;;;;;;5025683;28;20183;-94
2021/01/10 01:27:02;;;;;;;29.50;18.37;;;2.70;99.90;;;;;;5011139;28;20187;-94
2021/01/10 01:29:43;;;;;;;;;;;;;;;;;;;;;
2021/01/10 01:32:53;;;;;;;27.60;17.37;;;2.70;99.90;;;;;;5021119;28;20244;-93
2021/01/10 01:35:24;;;;;;;29.00;18.23;;;2.80;99.90;;;;;;5007162;28;20200;-94
2021/01/10 01:37:59;;;;;;;31.97;18.77;;;2.90;99.90;;;;;;5017919;28;20208;-94
2021/01/10 01:43:19;;;;;;;31.30;18.53;;;2.90;99.90;;;;;;5018888;28;20173;-95
2021/01/10 01:45:48;;;;;;;30.20;18.50;;;2.80;99.90;;;;;;5054684;22;20204;-95
2021/01/10 01:48:26;;;;;;;29.80;18.73;;;2.80;99.90;;;;;;5016311;28;20166;-94
2021/01/10 01:51:03;;;;;;;29.83;18.63;;;2.80;99.90;;;;;;4977887;28;20224;-93
2021/01/10 01:53:32;;;;;;;26.87;18.17;;;2.80;99.90;;;;;;4986672;28;20181;-94
2021/01/10 01:56:00;;;;;;;26.90;17.33;;;2.70;99.90;;;;;;4986000;28;20220;-94
2021/01/10 01:58:27;;;;;;;32.13;17.67;;;2.60;99.90;;;;;;4971589;28;20178;-94
2021/01/10 02:00:54;;;;;;;32.00;18.00;;;2.60;99.90;;;;;;4992228;28;20202;-93
2021/01/10 02:03:32;;;;;;;31.77;18.80;;;2.60;99.90;;;;;;5000056;28;20231;-94
2021/01/10 02:06:30;;;;;;;28.43;17.60;;;2.60;99.90;;;;;;4999700;28;20169;-95
2021/01/10 02:09:05;;;;;;;34.77;18.07;;;2.60;99.90;;;;;;4986625;28;20186;-94
2021/01/10 02:11:35;;;;;;;32.73;18.70;;;2.50;99.90;;;;;;4985495;28;20245;-95
2021/01/10 02:14:10;;;;;;;34.80;19.03;;;2.50;99.90;;;;;;4985823;28;20174;-94
2021/01/10 02:16:40;;;;;;;30.37;17.30;;;2.40;99.90;;;;;;4985012;28;20178;-94
2021/01/10 02:19:18;;;;;;;28.47;17.53;;;2.40;99.90;;;;;;4969515;28;20193;-95
2021/01/10 02:21:51;;;;;;;40.27;18.00;;;2.40;99.90;;;;;;4984718;28;20190;-95
2021/01/10 02:24:24;;;;;;;44.47;17.93;;;2.50;99.90;;;;;;4985099;28;20169;-93
2021/01/10 02:26:58;;;;;;;62.50;19.50;;;2.50;99.90;;;;;;4969240;28;20174;-94
2021/01/10 02:29:29;;;;;;;76.53;19.50;;;2.50;99.90;;;;;;4984609;28;20170;-94
2021/01/10 02:31:58;;;;;;;86.40;20.00;;;2.50;99.90;;;;;;4969990;28;20194;-94
2021/01/10 02:34:33;;;;;;;45.23;18.10;;;2.50;99.90;;;;;;4984769;28;20170;-95
2021/01/10 02:37:30;;;;;;;56.17;18.37;;;2.60;99.90;;;;;;4984393;28;20379;-94
2021/01/10 02:40:14;;;;;;;78.57;20.17;;;2.50;99.90;;;;;;4984554;28;20194;-94
2021/01/10 02:43:18;;;;;;;65.30;19.77;;;2.50;99.90;;;;;;4984343;28;20166;-94
2021/01/10 02:45:46;;;;;;;30.70;18.50;;;2.70;99.90;;;;;;4953987;28;20181;-93
2021/01/10 02:48:22;;;;;;;56.90;19.17;;;2.70;99.90;;;;;;4982508;28;20172;-94
2021/01/10 02:50:48;;;;;;;43.60;18.30;;;2.50;99.90;;;;;;4985747;28;20185;-94
2021/01/10 02:53:19;;;;;;;30.77;18.80;;;2.40;99.90;;;;;;4981786;28;20218;-94
2021/01/10 02:56:05;;;;;;;66.40;20.50;;;2.50;99.90;;;;;;4953300;28;20166;-94
2021/01/10 02:58:34;;;;;;;28.77;18.07;;;2.50;99.90;;;;;;4970793;28;20320;-93
2021/01/10 03:01:05;;;;;;;58.77;21.00;;;2.70;99.90;;;;;;4984556;28;20196;-94
2021/01/10 03:03:36;;;;;;;27.67;17.60;;;2.60;99.90;;;;;;4984668;28;20178;-94
2021/01/10 03:06:07;;;;;;;69.47;19.03;;;2.70;99.90;;;;;;4970378;28;20162;-94
2021/01/10 03:08:40;;;;;;;30.23;17.70;;;2.80;99.90;;;;;;5002242;28;20257;-94
2021/01/10 03:11:19;;;;;;;32.23;17.90;;;2.90;99.90;;;;;;4987241;28;20262;-94
2021/01/10 03:14:01;;;;;;;44.13;20.23;;;3.00;99.90;;;;;;4974089;28;20265;-94
2021/01/10 03:16:41;;;;;;;45.63;19.80;;;3.00;99.90;;;;;;4960243;28;20178;-94
2021/01/10 03:19:14;;;;;;;35.37;20.10;;;3.00;99.90;;;;;;4974228;28;20182;-94
2021/01/10 03:21:46;;;;;;;32.57;19.57;;;3.20;99.90;;;;;;4963037;28;20248;-93
2021/01/10 03:24:34;;;;;;;30.00;18.67;;;3.20;99.90;;;;;;4993333;28;20210;-93
2021/01/10 03:27:02;;;;;;;33.07;19.30;;;3.20;99.90;;;;;;4962683;28;20185;-94
2021/01/10 03:29:31;;;;;;;31.67;19.30;;;3.10;99.90;;;;;;4978320;28;20174;-94
2021/01/10 03:32:06;;;;;;;30.97;17.50;;;3.10;99.90;;;;;;4993631;28;20185;-94
2021/01/10 03:34:41;;;;;;;34.77;18.97;;;3.00;99.90;;;;;;4993433;28;20174;-93
2021/01/10 03:37:12;;;;;;;32.97;19.13;;;2.90;99.90;;;;;;4994089;28;20248;-94
2021/01/10 03:39:41;;;;;;;30.17;18.63;;;2.80;99.90;;;;;;4995274;28;20166;-94
2021/01/10 03:42:24;;;;;;;;;;;;;;;;;;;;;
2021/01/10 03:45:03;;;;;;;36.17;20.23;;;2.90;99.90;;;;;;4994971;28;20246;-94
2021/01/10 03:47:41;;;;;;;;;;;;;;;;;;;;;
2021/01/10 03:50:12;;;;;;;33.47;17.90;;;3.10;99.90;;;;;;4995258;28;20193;-94
2021/01/10 03:52:41;;;;;;;30.83;17.80;;;3.10;99.90;;;;;;4995501;28;20667;-94
2021/01/10 03:55:12;;;;;;;27.73;17.53;;;3.20;99.90;;;;;;4994804;28;20181;-94
2021/01/10 03:57:49;;;;;;;25.90;17.10;;;3.10;99.90;;;;;;4979630;28;20189;-94
2021/01/10 04:00:18;;;;;;;27.20;17.33;;;3.00;99.90;;;;;;4980968;28;20202;-95
2021/01/10 04:02:46;;;;;;;28.67;17.83;;;3.00;99.90;;;;;;4997015;28;20181;-92
2021/01/10 04:05:37;;;;;;;31.07;18.17;;;3.10;99.90;;;;;;5012520;28;20190;-93
2021/01/10 04:08:11;;;;;;;27.93;17.13;;;3.10;99.90;;;;;;4982211;28;20278;-93
2021/01/10 04:10:39;;;;;;;29.40;17.73;;;3.20;99.90;;;;;;4984621;28;20165;-94
2021/01/10 04:13:28;;;;;;;31.67;17.00;;;3.20;99.90;;;;;;5070286;22;20229;-95
2021/01/10 04:16:20;;;;;;;25.90;17.27;;;3.20;99.90;;;;;;5006270;28;20139;-95
2021/01/10 04:18:57;;;;;;;25.30;17.07;;;3.10;99.90;;;;;;5000873;28;20182;-94
2021/01/10 04:21:46;;;;;;;29.47;18.17;;;3.30;99.90;;;;;;4995848;28;20273;-93
2021/01/10 04:24:17;;;;;;;28.83;17.50;;;3.30;99.90;;;;;;4986160;28;20316;-93
2021/01/10 04:27:04;;;;;;;;;;;;;;;;;;;;;
2021/01/10 04:29:33;;;;;;;34.43;19.63;;;3.50;99.90;;;;;;5001410;28;20174;-95
2021/01/10 04:32:01;;;;;;;28.70;18.93;;;3.50;99.90;;;;;;5127408;22;20231;-95
2021/01/10 04:34:40;;;;;;;;;;;;;;;;;;;;;
2021/01/10 04:37:11;;;;;;;27.30;18.07;;;3.60;99.90;;;;;;5052744;28;20203;-93
2021/01/10 04:39:36;;;;;;;27.20;17.47;;;3.60;99.90;;;;;;5035675;28;20188;-94
2021/01/10 04:42:08;;;;;;;27.63;17.83;;;3.70;99.90;;;;;;5044382;28;20173;-93
2021/01/10 04:45:00;;;;;;;25.17;17.37;;;3.60;99.90;;;;;;5040659;28;20181;-93
2021/01/10 04:47:29;;;;;;;24.93;16.60;;;3.60;99.90;;;;;;5031098;28;20165;-93
2021/01/10 04:50:09;;;;;;;25.97;17.80;;;3.50;99.90;;;;;;5014676;28;20185;-93
2021/01/10 04:52:46;;;;;;;25.53;17.63;;;3.50;99.90;;;;;;5025745;28;20252;-92
2021/01/10 04:55:22;;;;;;;22.17;15.87;;;3.40;99.90;;;;;;5036629;28;20237;-93
2021/01/10 04:58:00;;;;;;;;;;;;;;;;;;;;;
2021/01/10 05:00:39;;;;;;;24.87;17.47;;;3.40;99.90;;;;;;5054582;28;20202;-93
2021/01/10 05:03:18;;;;;;;;;;;;;;;;;;;;;
2021/01/10 05:05:46;;;;;;;26.83;17.20;;;3.50;99.90;;;;;;5056941;28;20187;-93
2021/01/10 05:08:18;;;;;;;28.47;18.57;;;3.60;99.90;;;;;;5072737;28;20183;-93
2021/01/10 05:10:44;;;;;;;22.47;16.87;;;3.60;99.90;;;;;;5076623;28;20183;-95
2021/01/10 05:16:02;;;;;;;26.83;17.83;;;3.70;99.90;;;;;;5060429;28;20195;-95
2021/01/10 05:18:28;;;;;;;30.07;18.47;;;3.60;99.90;;;;;;5076589;28;20157;-95
2021/01/10 05:20:55;;;;;;;29.73;18.23;;;3.60;99.90;;;;;;5071919;28;20744;-93
2021/01/10 05:23:29;;;;;;;25.40;17.20;;;3.70;99.90;;;;;;5063545;28;20190;-94
2021/01/10 05:26:10;;;;;;;24.87;16.60;;;3.70;99.90;;;;;;5060744;28;20180;-92
2021/01/10 05:28:41;;;;;;;27.67;17.57;;;3.60;99.90;;;;;;5044278;28;20264;-93
2021/01/10 05:31:34;;;;;;;25.80;17.87;;;3.70;99.90;;;;;;5028264;28;20180;-93
2021/01/10 05:34:03;;;;;;;25.37;17.80;;;3.70;99.90;;;;;;5039413;28;20188;-93
2021/01/10 05:36:37;;;;;;;24.00;17.30;;;3.80;99.90;;;;;;5038415;28;20263;-93
2021/01/10 05:39:25;;;;;;;25.10;17.03;;;3.70;99.90;;;;;;5039505;28;20551;-93
2021/01/10 05:42:02;;;;;;;25.00;17.43;;;3.60;99.90;;;;;;5037185;28;20224;-93
2021/01/10 05:44:28;;;;;;;27.87;16.77;;;3.60;99.90;;;;;;5036715;28;20181;-93
2021/01/10 05:47:23;;;;;;;27.37;17.77;;;3.50;99.90;;;;;;5019604;28;20176;-93
2021/01/10 05:49:54;;;;;;;21.73;15.73;;;3.60;99.90;;;;;;5016367;28;20319;-93
2021/01/10 05:52:21;;;;;;;24.47;16.67;;;3.60;99.90;;;;;;5035970;28;20184;-93
2021/01/10 05:54:59;;;;;;;24.23;16.63;;;3.70;99.90;;;;;;5002222;28;20300;-92
2021/01/10 05:57:27;;;;;;;24.97;17.03;;;3.70;99.90;;;;;;5018180;28;20176;-92
2021/01/10 05:59:56;;;;;;;23.37;16.13;;;3.70;99.90;;;;;;5038122;28;20782;-92
2021/01/10 06:02:35;;;;;;;24.30;16.17;;;3.70;99.90;;;;;;5052873;28;20202;-93
2021/01/10 06:05:16;;;;;;;20.97;15.27;;;3.60;99.90;;;;;;5054082;28;20175;-93
2021/01/10 06:07:48;;;;;;;26.87;17.00;;;3.60;99.90;;;;;;5042579;28;20160;-93
2021/01/10 06:10:26;;;;;;;24.30;16.13;;;3.60;99.90;;;;;;5054130;28;20530;-93
2021/01/10 06:13:03;;;;;;;20.93;15.37;;;3.60;99.90;;;;;;5054129;28;20183;-92
2021/01/10 06:15:34;;;;;;;23.93;17.27;;;3.60;99.90;;;;;;5037588;28;20641;-93
2021/01/10 06:18:14;;;;;;;22.37;16.40;;;3.60;99.90;;;;;;5054202;28;20183;-93
2021/01/10 06:20:43;;;;;;;22.70;16.07;;;3.70;99.90;;;;;;5038250;28;20256;-93
2021/01/10 06:23:11;;;;;;;28.03;17.57;;;3.50;99.90;;;;;;5053978;28;20557;-93
2021/01/10 06:25:39;;;;;;;23.93;16.93;;;3.50;99.90;;;;;;5055268;28;20168;-93
2021/01/10 06:28:15;;;;;;;23.53;16.23;;;3.50;99.90;;;;;;5052735;28;20175;-93
2021/01/10 06:30:57;;;;;;;23.30;16.43;;;3.50;99.90;;;;;;5041665;28;20176;-93
2021/01/10 06:33:32;;;;;;;26.47;17.23;;;3.50;99.90;;;;;;5032906;28;20223;-92
2021/01/10 06:36:08;;;;;;;24.37;16.70;;;3.50;99.90;;;;;;5033204;28;20168;-93
2021/01/10 06:38:36;;;;;;;31.77;18.70;;;3.30;99.90;;;;;;5039014;28;20190;-92
2021/01/10 06:41:27;;;;;;;;;;;;;;;;;;;;;
2021/01/10 06:44:01;;;;;;;25.80;17.47;;;3.30;99.90;;;;;;5058701;28;20191;-94
2021/01/10 06:46:34;;;;;;;30.00;18.10;;;3.20;99.90;;;;;;5056513;28;20226;-93
2021/01/10 06:49:01;;;;;;;26.67;16.43;;;3.20;99.90;;;;;;5053871;28;20211;-93
2021/01/10 06:51:29;;;;;;;26.70;17.20;;;3.00;99.90;;;;;;5052899;28;20198;-92
2021/01/10 06:53:59;;;;;;;27.10;17.70;;;3.00;99.90;;;;;;5037060;28;20247;-93
2021/01/10 06:56:28;;;;;;;31.20;17.90;;;3.00;99.90;;;;;;5068943;28;20164;-93
2021/01/10 06:59:02;;;;;;;28.20;16.70;;;2.90;99.90;;;;;;5074869;28;20467;-94
2021/01/10 07:01:53;;;;;;;26.77;17.57;;;2.70;99.90;;;;;;5053752;28;20303;-92
2021/01/10 07:04:32;;;;;;;25.27;16.03;;;2.70;99.90;;;;;;5037616;28;20219;-92
2021/01/10 07:06:57;;;;;;;27.03;16.37;;;2.70;99.90;;;;;;5038286;28;20198;-92
2021/01/10 07:09:26;;;;;;;25.20;16.47;;;2.60;99.90;;;;;;5054071;28;20172;-93
2021/01/10 07:11:52;;;;;;;23.63;15.93;;;2.60;99.90;;;;;;5051930;28;20183;-91
2021/01/10 07:14:20;;;;;;;26.67;17.17;;;2.40;99.90;;;;;;5052865;28;20180;-94
2021/01/10 07:16:49;;;;;;;27.37;18.47;;;2.30;99.90;;;;;;5045005;28;20175;-92
2021/01/10 07:19:18;;;;;;;29.30;19.00;;;2.30;99.90;;;;;;5037354;28;20262;-93
2021/01/10 07:21:46;;;;;;;29.77;19.23;;;2.30;99.90;;;;;;5053597;28;20231;-93
2021/01/10 07:26:44;;;;;;;26.97;17.40;;;2.20;99.90;;;;;;5039334;28;20173;-93
2021/01/10 07:29:26;;;;;;;29.37;17.90;;;2.20;99.90;;;;;;5039422;28;20240;-92
2021/01/10 07:32:08;;;;;;;27.47;18.33;;;2.30;99.90;;;;;;5034925;28;20691;-93
2021/01/10 07:34:57;;;;;;;31.37;19.13;;;2.30;99.90;;;;;;5036497;28;20190;-92
2021/01/10 07:37:23;;;;;;;31.23;18.77;;;2.30;99.90;;;;;;5034621;28;20172;-93
2021/01/10 07:39:54;;;;;;;28.33;18.97;;;2.30;99.90;;;;;;5040096;28;20166;-93
2021/01/10 07:42:22;;;;;;;29.57;18.37;;;2.10;99.90;;;;;;5034603;28;20191;-87
2021/01/10 07:44:49;;;;;;;28.43;18.63;;;2.10;99.90;;;;;;5019510;28;20176;-88
2021/01/10 07:47:16;;;;;;;32.93;18.80;;;2.00;99.90;;;;;;5034874;28;20172;-87
2021/01/10 07:49:58;;;;;;;30.03;18.53;;;2.00;99.90;;;;;;5035109;28;20263;-89
2021/01/10 07:52:42;;;;;;;33.50;18.90;;;2.00;99.90;;;;;;5035816;28;20158;-88
2021/01/10 07:55:23;;;;;;;28.00;18.00;;;2.00;99.90;;;;;;5035028;28;20571;-89
2021/01/10 07:58:15;;;;;;;27.70;18.33;;;2.00;99.90;;;;;;5033200;28;20178;-79
2021/01/10 08:00:52;;;;;;;28.23;18.43;;;2.00;99.90;;;;;;5034962;28;20200;-80
2021/01/10 08:03:25;;;;;;;30.63;19.00;;;2.00;99.90;;;;;;5037509;28;20161;-81
2021/01/10 08:06:09;;;;;;;33.03;18.90;;;2.00;99.90;;;;;;5036543;28;20171;-80
2021/01/10 08:08:46;;;;;;;31.90;18.63;;;2.00;99.90;;;;;;5052261;28;20618;-81
2021/01/10 08:11:31;;;;;;;26.83;17.60;;;2.00;99.90;;;;;;5037149;28;20529;-80
2021/01/10 08:13:57;;;;;;;31.77;18.80;;;2.00;99.90;;;;;;5035822;28;20641;-79
2021/01/10 08:16:23;;;;;;;29.47;18.57;;;2.00;99.90;;;;;;5052474;28;20172;-80
2021/01/10 08:18:48;;;;;;;24.97;17.03;;;2.00;99.90;;;;;;5037071;28;20671;-79
2021/01/10 08:21:16;;;;;;;27.87;17.10;;;1.90;99.90;;;;;;5036689;28;20606;-79
2021/01/10 08:23:46;;;;;;;27.40;17.73;;;1.90;99.90;;;;;;5052690;28;20180;-80
2021/01/10 08:26:16;;;;;;;28.53;17.90;;;2.00;99.90;;;;;;5036251;28;20234;-80
2021/01/10 08:28:44;;;;;;;25.70;17.73;;;2.10;99.90;;;;;;5035520;28;20180;-81
2021/01/10 08:31:11;;;;;;;31.57;18.37;;;2.20;99.90;;;;;;5043376;28;20185;-80
2021/01/10 08:33:38;;;;;;;29.60;18.33;;;2.30;99.90;;;;;;5017014;28;20192;-81
2021/01/10 08:36:09;;;;;;;34.23;20.33;;;2.50;99.90;;;;;;5032832;28;20188;-80
2021/01/10 08:38:37;;;;;;;34.50;19.40;;;2.80;99.90;;;;;;5032251;28;20176;-81
2021/01/10 08:41:03;;;;;;;34.57;20.13;;;3.10;99.90;;;;;;5016758;28;20548;-79
2021/01/10 08:43:28;;;;;;;26.07;18.03;;;3.30;99.90;;;;;;5015752;28;20181;-82
2021/01/10 08:45:54;;;;;;;27.73;18.93;;;3.50;99.90;;;;;;5016970;28;20200;-80
2021/01/10 08:48:20;;;;;;;27.10;19.33;;;3.70;99.90;;;;;;5015884;28;20214;-80
2021/01/10 08:50:45;;;;;;;37.10;19.70;;;3.90;99.90;;;;;;4982838;28;20259;-80
2021/01/10 08:53:11;;;;;;;31.53;19.23;;;4.00;99.90;;;;;;5015824;28;20222;-81
2021/01/10 08:55:39;;;;;;;28.17;18.70;;;4.30;99.90;;;;;;4999767;28;20251;-81
2021/01/10 08:58:07;;;;;;;32.27;19.87;;;5.00;99.90;;;;;;5016314;28;20252;-81
2021/01/10 09:00:38;;;;;;;26.43;18.60;;;6.10;99.90;;;;;;5029514;28;20196;-78
2021/01/10 09:03:19;;;;;;;21.80;16.13;;;7.50;99.90;;;;;;5051509;28;20176;-80
2021/01/10 09:05:49;;;;;;;18.03;14.43;;;9.70;99.90;;;;;;5039085;28;20176;-80
2021/01/10 09:08:29;;;;;;;17.93;14.20;;;11.80;99.90;;;;;;5017185;28;20214;-80
2021/01/10 09:11:11;;;;;;;15.13;13.25;;;13.80;99.90;;;;;;5029949;28;20622;-80
2021/01/10 09:13:41;;;;;;;14.18;12.77;;;15.50;99.90;;;;;;5041019;28;20200;-80
2021/01/10 09:16:11;;;;;;;14.77;13.27;;;16.70;99.90;;;;;;5016302;28;20223;-80
2021/01/10 09:18:39;;;;;;;13.93;12.55;;;17.80;99.90;;;;;;5014642;28;20565;-80
2021/01/10 09:21:16;;;;;;;13.27;11.95;;;18.50;99.90;;;;;;5018365;28;20212;-81
2021/01/10 09:23:53;;;;;;;13.15;11.93;;;18.70;99.90;;;;;;5027092;28;20274;-81
2021/01/10 09:26:30;;;;;;;12.73;11.52;;;18.20;99.90;;;;;;5027081;28;20625;-80
2021/01/10 09:28:57;;;;;;;12.32;11.13;;;18.20;99.90;;;;;;5026983;28;20173;-81
2021/01/10 09:31:43;;;;;;;12.65;11.52;;;18.20;99.90;;;;;;5032414;28;20278;-81
2021/01/10 09:34:12;;;;;;;17.08;13.18;;;17.40;99.90;;;;;;5034413;28;20192;-81
2021/01/10 09:36:38;;;;;;;14.18;12.82;;;16.40;99.90;;;;;;5034020;28;20172;-81
2021/01/10 09:39:05;;;;;;;14.88;13.38;;;15.30;99.90;;;;;;5035010;28;20163;-81
2021/01/10 09:41:31;;;;;;;21.42;14.52;;;14.50;99.90;;;;;;5025494;28;20286;-81
2021/01/10 09:44:00;;;;;;;25.90;18.00;;;14.00;99.90;;;;;;5026102;28;20215;-81
2021/01/10 09:46:36;;;;;;;64.68;20.40;;;13.30;99.90;;;;;;5033709;28;20176;-81
2021/01/10 09:49:04;;;;;;;50.28;19.05;;;12.50;99.90;;;;;;5013790;28;20175;-81
2021/01/10 09:51:41;;;;;;;76.10;19.80;;;11.60;99.90;;;;;;5013833;28;20537;-81
2021/01/10 09:54:11;;;;;;;155.98;22.13;;;10.70;99.90;;;;;;5022767;28;20246;-80
2021/01/10 09:56:39;;;;;;;101.35;19.25;;;9.90;99.90;;;;;;5014553;28;20625;-80
2021/01/10 09:59:26;;;;;;;51.30;19.50;;;9.40;99.90;;;;;;5026807;28;20203;-80
2021/01/10 10:01:53;;;;;;;123.72;21.17;;;9.10;99.90;;;;;;4992814;28;20255;-81
2021/01/10 10:04:26;;;;;;;103.23;19.30;;;8.70;99.90;;;;;;5042627;28;20180;-80
2021/01/10 10:06:52;;;;;;;107.70;17.70;;;8.40;99.90;;;;;;5032734;28;20179;-81
2021/01/10 10:09:17;;;;;;;20.92;16.10;;;8.50;99.90;;;;;;5032980;28;20176;-81
2021/01/10 10:11:46;;;;;;;72.77;18.60;;;8.90;99.90;;;;;;5034031;28;20174;-80
2021/01/10 10:14:13;;;;;;;50.90;19.93;;;9.00;99.90;;;;;;5032273;28;20672;-81
2021/01/10 10:16:40;;;;;;;68.37;18.63;;;9.00;99.90;;;;;;5032606;28;20179;-81
2021/01/10 10:19:05;;;;;;;62.17;19.77;;;8.70;99.90;;;;;;5033437;28;20633;-81
2021/01/10 10:21:31;;;;;;;95.40;19.77;;;8.40;99.90;;;;;;5033169;28;20196;-81
2021/01/10 10:23:57;;;;;;;63.70;19.60;;;8.10;99.90;;;;;;5012187;28;20521;-81
2021/01/10 10:26:22;;;;;;;26.03;17.70;;;8.00;99.90;;;;;;5008409;28;20183;-81
2021/01/10 10:28:48;;;;;;;27.07;18.07;;;7.80;99.90;;;;;;5016762;28;20173;-81
2021/01/10 10:31:14;;;;;;;26.00;16.80;;;7.50;99.90;;;;;;5029816;28;20238;-81
2021/01/10 10:33:39;;;;;;;88.97;19.80;;;7.40;99.90;;;;;;5020073;28;20193;-82
2021/01/10 10:36:05;;;;;;;174.73;23.50;;;7.30;99.90;;;;;;4998047;28;20214;-81
2021/01/10 10:38:32;;;;;;;117.43;20.30;;;7.30;99.90;;;;;;5031178;28;20184;-81
2021/01/10 10:40:58;;;;;;;150.90;20.93;;;7.20;99.90;;;;;;5030924;28;20648;-81
2021/01/10 10:43:25;;;;;;;171.23;21.63;;;7.20;99.90;;;;;;5014603;28;20192;-81
2021/01/10 10:45:57;;;;;;;88.10;20.87;;;7.20;99.90;;;;;;5012190;28;20177;-81
2021/01/10 10:48:23;;;;;;;186.60;23.40;;;7.10;99.90;;;;;;5026042;28;20191;-81
2021/01/10 10:50:49;;;;;;;49.53;20.00;;;7.10;99.90;;;;;;4990805;28;20376;-82
2021/01/10 10:53:14;;;;;;;56.43;21.00;;;7.00;99.90;;;;;;5017076;28;20235;-82
2021/01/10 10:55:40;;;;;;;73.13;23.37;;;6.90;99.90;;;;;;5023007;28;20658;-81
2021/01/10 10:58:07;;;;;;;131.43;25.53;;;6.80;99.90;;;;;;5032434;28;20183;-82
2021/01/10 11:00:35;;;;;;;29.00;19.57;;;6.80;99.90;;;;;;5028405;28;20218;-82
2021/01/10 11:03:03;;;;;;;43.40;24.00;;;6.90;99.90;;;;;;5004814;28;20190;-82
2021/01/10 11:05:29;;;;;;;105.40;25.50;;;6.90;99.90;;;;;;5019772;28;20266;-82
2021/01/10 11:07:54;;;;;;;139.70;24.03;;;7.10;99.90;;;;;;5014327;28;20271;-81
2021/01/10 11:10:20;;;;;;;57.47;23.07;;;7.00;99.90;;;;;;5002238;28;20702;-81
2021/01/10 11:12:46;;;;;;;62.50;21.13;;;6.90;99.90;;;;;;5032123;28;20274;-82
2021/01/10 11:15:13;;;;;;;57.60;21.07;;;6.70;99.90;;;;;;5030721;28;20641;-81
2021/01/10 11:17:39;;;;;;;50.93;20.87;;;6.50;99.90;;;;;;5021705;28;20176;-82
2021/01/10 11:20:05;;;;;;;72.33;22.00;;;6.50;99.90;;;;;;5038567;28;20184;-82
2021/01/10 11:22:35;;;;;;;40.73;19.83;;;7.20;99.90;;;;;;5020145;28;20252;-82
2021/01/10 11:25:05;;;;;;;61.57;19.20;;;7.70;99.90;;;;;;5012401;28;20204;-81
2021/01/10 11:27:30;;;;;;;27.00;17.97;;;7.90;99.90;;;;;;4997797;28;20177;-82
2021/01/10 11:29:56;;;;;;;38.43;17.03;;;7.90;99.90;;;;;;5012637;28;20210;-81
2021/01/10 11:32:22;;;;;;;23.13;17.23;;;7.80;99.90;;;;;;5009235;28;20172;-81
2021/01/10 11:34:47;;;;;;;27.27;16.97;;;7.70;99.90;;;;;;5048515;28;20204;-81
2021/01/10 11:37:13;;;;;;;67.97;18.93;;;7.60;99.90;;;;;;5032062;28;20259;-81
2021/01/10 11:39:39;;;;;;;51.83;17.60;;;7.60;99.90;;;;;;5030705;28;20180;-80
2021/01/10 11:42:05;;;;;;;63.07;18.57;;;7.50;99.90;;;;;;5024813;28;20559;-82
2021/01/10 11:44:30;;;;;;;31.13;17.97;;;7.40;99.90;;;;;;5017250;28;20188;-81
2021/01/10 11:47:03;;;;;;;57.90;18.20;;;7.20;99.90;;;;;;5036573;28;20529;-82
2021/01/10 11:49:28;;;;;;;35.50;17.63;;;6.90;99.90;;;;;;5034900;28;20180;-81
2021/01/10 11:51:55;;;;;;;69.77;18.60;;;6.90;99.90;;;;;;5024439;28;20207;-82
2021/01/10 11:54:21;;;;;;;84.53;20.10;;;6.90;99.90;;;;;;5036422;28;20627;-81
2021/01/10 11:56:48;;;;;;;35.57;18.77;;;6.70;99.90;;;;;;5026961;28;20180;-81
2021/01/10 11:59:14;;;;;;;41.17;18.97;;;6.80;99.90;;;;;;5020244;28;20629;-81
2021/01/10 12:01:40;;;;;;;90.93;18.73;;;6.90;99.90;;;;;;5025470;28;20216;-83
2021/01/10 12:04:07;;;;;;;45.50;18.77;;;6.70;99.90;;;;;;4999339;28;20216;-82
2021/01/10 12:06:34;;;;;;;68.17;18.30;;;6.60;99.90;;;;;;5025379;28;20630;-82
2021/01/10 12:09:00;;;;;;;81.23;19.10;;;6.70;99.90;;;;;;5016929;28;20185;-82
2021/01/10 12:11:26;;;;;;;165.13;21.17;;;6.80;99.90;;;;;;5012271;28;20271;-82
2021/01/10 12:13:51;;;;;;;201.77;22.30;;;6.90;99.90;;;;;;5017892;28;20185;-82
2021/01/10 12:16:19;;;;;;;121.53;20.67;;;7.00;99.90;;;;;;5010211;28;20176;-83
2021/01/10 12:18:45;;;;;;;69.10;18.43;;;7.00;99.90;;;;;;5032941;28;20733;-82
2021/01/10 12:21:12;;;;;;;55.40;19.47;;;6.90;99.90;;;;;;5025495;28;20207;-82
2021/01/10 12:23:40;;;;;;;65.47;19.33;;;6.80;99.90;;;;;;5032186;28;20200;-83
2021/01/10 12:26:16;;;;;;;60.13;18.80;;;6.50;99.90;;;;;;5033587;28;20179;-83
2021/01/10 12:28:45;;;;;;;82.40;19.93;;;6.10;99.90;;;;;;5027300;28;20171;-83
2021/01/10 12:31:12;;;;;;;29.33;17.50;;;5.90;99.90;;;;;;5035830;28;20641;-83
2021/01/10 12:33:39;;;;;;;31.20;17.60;;;5.90;99.90;;;;;;5032240;28;20247;-83
2021/01/10 12:36:07;;;;;;;38.17;18.37;;;5.60;99.90;;;;;;5016230;28;20184;-83
2021/01/10 12:38:33;;;;;;;34.53;18.27;;;5.60;99.90;;;;;;5038170;28;20542;-83
2021/01/10 12:40:58;;;;;;;61.53;18.33;;;5.70;99.90;;;;;;5040024;28;20298;-82
2021/01/10 12:43:24;;;;;;;57.57;17.23;;;5.60;99.90;;;;;;5039925;28;20271;-81
2021/01/10 12:45:50;;;;;;;40.83;16.57;;;5.70;99.90;;;;;;5040143;28;20275;-82
2021/01/10 12:48:19;;;;;;;95.77;18.80;;;5.70;99.90;;;;;;5014999;28;20181;-82
2021/01/10 12:50:45;;;;;;;60.57;17.27;;;5.60;99.90;;;;;;5039686;28;20181;-82
2021/01/10 12:53:11;;;;;;;75.20;18.43;;;5.70;99.90;;;;;;5024961;28;20177;-82
2021/01/10 12:55:37;;;;;;;81.83;19.27;;;5.80;99.90;;;;;;5007105;28;20649;-82
2021/01/10 12:58:03;;;;;;;111.33;19.00;;;6.00;99.90;;;;;;5004409;28;20204;-82
2021/01/10 13:00:29;;;;;;;36.80;17.70;;;6.00;99.90;;;;;;5019661;28;20307;-82
2021/01/10 13:02:54;;;;;;;52.10;18.87;;;6.10;99.90;;;;;;4998983;28;20263;-82
2021/01/10 13:05:20;;;;;;;26.53;17.83;;;6.10;99.90;;;;;;5019515;28;20276;-80
2021/01/10 13:07:48;;;;;;;109.90;19.30;;;6.10;99.90;;;;;;5033985;28;20187;-80
2021/01/10 13:10:14;;;;;;;55.23;18.00;;;6.20;99.90;;;;;;5033715;28;20224;-80
2021/01/10 13:12:40;;;;;;;112.03;19.87;;;6.10;99.90;;;;;;5015985;28;20664;-81
2021/01/10 13:15:06;;;;;;;80.33;19.93;;;5.80;99.90;;;;;;5016447;28;20173;-81
2021/01/10 13:17:32;;;;;;;59.13;20.37;;;5.90;99.90;;;;;;5014875;28;20725;-82
2021/01/10 13:19:57;;;;;;;119.00;22.17;;;5.80;99.90;;;;;;4998659;28;20212;-81
2021/01/10 13:22:27;;;;;;;116.43;23.33;;;5.70;99.90;;;;;;5015662;28;20221;-81